Santiago, Chile
Current Conditions -  °F | °C
As of 9:00 PM on Saturday 22 Nov 2014 (Local Time) from SCEL Reporting Station
Broken Clouds Broken Clouds  
Wind Chill: 66°   Ceiling: 18000
Heat Index: 66°   Visibility: 6mi
Dew Point: 41°   Wind: 9mph
Humidity: 40%   Direction: 150°SSE
Pressure: 29.97"   Gusts: NA
Location:  33.46°S, 70.64°W
Report Text: SCEL 230100Z 15008KT 9999 BKN180 19/05 Q1015 NOSIG
Loading
Personal Weather Stations






























Interactive Weather Map New forecast layout! Learn more

10-Day Weather Forecast

Advertisements
Track Severe Weather on mobile